Key West, FL

18:32 EDT le 25 septembre 2016 (GMT -0400)
Big Coppitt Key Gulfside | | Change Station

Alt. 31 ft 24.60 °N, 81.67 °W | Updated 1 minute ago

Mostly Cloudy
Nuageux
85.5 ° F
Paraît 93 ° F
N
2.7
Vent Variable Vent de SSO

Aujourd'hui
Haut(e) -- | Bas -- ° F
--% Risque de précip.
Hier
Haut(e) -- | Bas -- ° F
Precip. -- pouce
Pression 29.95 pouce
Visibilité 10.0 Miles terrestres
Nuages Nuages épars 3200 ft
Nuageux 9500 ft
Nuageux 25000 ft
indice de chaleur 93 ° F
Point de rosée 73 ° F
Humidité 67%
Précipitations 0.56 pouce
Profondeur de la couche neigeuse Non disponible.
7:16 AM 7:19 PM
Lune descendante, 24% visible
METAR KNQX 252153Z 12007KT 10SM SCT032 BKN095 BKN250 29/23 A2995 RMK AO2 SLP140 T2 SET T02940228 $
Pression 29.95 pouce
Visibilité 10.0 Miles terrestres
Nuages Nuages épars 3200 ft
Nuageux 9500 ft
Nuageux 25000 ft
indice de chaleur 93 ° F
Point de rosée 73 ° F
Humidité 67%
Précipitations 0.56 pouce
Profondeur de la couche neigeuse Non disponible.
7:16 AM 7:19 PM
Lune descendante, 24% visible
METAR KNQX 252153Z 12007KT 10SM SCT032 BKN095 BKN250 29/23 A2995 RMK AO2 SLP140 T2 SET T02940228 $

10-Day Weather Forecast

Almanac

Astronomie

Sep. 25, 2016 Lever Coucher
Temps réel
Crépuscule civil
Crépuscule nautique
Crépuscule astronomique
Lune
Durée de lumière visible
Longueur du jour
Tomorrow will be .
, % of the Moon is Illuminated

Extrêmes aujourd'hui

State Highs State Lows

Community

WunderPhotos

Upload Photos

1,941,759 Photos téléchargées !

WunderBlog® & News

Nearby

Qualité de l'air

  Qualité de l'air Indice de la qualité de l'air Polluant
Not available.

Épaisseur de neige

Station Depth Altitude

Activité sismique

Ville Distance Mag. Time & Date
Minimum magnitude displayed is 2.5.

Températures des eaux côtières

Lieu Température

Stations

Stations météo à proximité

Emplacement de la station Température Refroidissement éolien Point de rosée Humidité Vent Precip. Alt. Mise à jour Type
                   

Watches & Warnings

There are currently no watches in effect.